Terminal Aerodrome Forecast
Issued by NWS Wilmington, OH

Current Version | Previous Version | Text Only | Print | Product List | Glossary Off
Versions: 1 2 3 4 5 6 7 8 9 10 11 12 13 14 15 16 17

000
FTUS41 KILN 240530
TAFDAY
TAF
KDAY 240530Z 2406/2506 26003KT P6SM FEW060 BKN250
     FM241400 23007KT P6SM SCT030 BKN200
     FM241800 26008KT P6SM SCT045
     FM250000 VRB03KT P6SM SCT040=

USA.gov is the U.S. government's official web portal to all federal, state and local government web resources and services.